Hlavní strana
METAR-TAF:

METAR-TAF

Letiště :

Porto Alegre, Rio Grande do Sul, Brazílie

zeměpisná šířka: 30-00S, zeměpisná délka: 051-11W, výška: 3 m

Aktuální stav počasí

Zpráva byla vytvořena před 15 minutami, v 22:00 UTC
Jihovýchodní vítr 16 kt
Teplota 23°C
Vlhkost vzduchu 78%
Tlak 1016 hPa
Viditelnost 10 km a více
Skoro jasno ve výšce 3500 ft

METAR: SBPA 162200Z 13016KT 9999 FEW035 23/19 Q1016

Čas: 20:15 (22:15 UTC)

Předpověď počasí

Zpráva byla vytvořena před 6 hodinami a 15 minutami, v 16:00 UTC
Předpověď platná od 16 v 18 UTC do 17 v 18 UTC
Jižní vítr 7 kt
Viditelnost 10 km a více
Žádná oblačnost pod 1500 m, nevyskytují se cumulonimby.
Pravděpodobnost 40%
od 16 v 18 UTC do 16 v 20 UTC
Jihovýchodní vítr 12 kt
Viditelnost 10 km a více
Polojasno ve výšce 3000 ft
Změna
od 16 v 22 UTC do 16 v 24 UTC
Východní vítr 8 kt

TAF: SBPA 161600Z 1618/1718 19007KT CAVOK TN16/1708Z TX32/1718Z PROB40 1618/1620 14012KT 9999 SCT030 BECMG 1622/1624 10008KT RMK PCX

Stav a předpovědi počasí z více než 4 000 letišť (zprávy METAR a TAF).

Červené a žluté tečky na mapě představují dostupné meteorologické stanice.

Když kurzor umístíte na tečku, zobrazí se název stanice.

Pak kliknutím zobrazíte stav a předpověď počasí.

Chcete-li změnit mapu, kliknutím na zelené tlačítko se znaménkem +mapu přiblížíte, kliknutím na zelené tlačítko se znaménkem – mapu oddálíte a kliknutím na zelené šipky přejdete na sousední mapy.


METAR-TAF: